sensor_id;sensor_type;location;lat;lon;timestamp;pressure;altitude;pressure_sealevel;temperature;humidity
70240;BME280;57629;52.256;10.414;2024-02-23T00:00:10;97680.47;;;18.18;52.09
70240;BME280;57629;52.256;10.414;2024-02-23T00:01:11;97675.16;;;18.18;52.47
70240;BME280;57629;52.256;10.414;2024-02-23T00:02:18;97693.75;;;18.18;52.09
70240;BME280;57629;52.256;10.414;2024-02-23T00:03:21;97689.22;;;18.19;52.40
70240;BME280;57629;52.256;10.414;2024-02-23T00:04:26;97688.44;;;18.18;52.08
70240;BME280;57629;52.256;10.414;2024-02-23T00:05:29;97687.66;;;18.18;52.04
70240;BME280;57629;52.256;10.414;2024-02-23T00:06:29;97688.44;;;18.18;51.84
70240;BME280;57629;52.256;10.414;2024-02-23T00:07:34;97689.53;;;18.17;51.80
70240;BME280;57629;52.256;10.414;2024-02-23T00:08:40;97693.28;;;18.16;52.35
70240;BME280;57629;52.256;10.414;2024-02-23T00:09:41;97701.72;;;18.18;51.96
70240;BME280;57629;52.256;10.414;2024-02-23T00:10:41;97699.06;;;18.18;52.10
70240;BME280;57629;52.256;10.414;2024-02-23T00:11:42;97709.66;;;18.18;51.95
70240;BME280;57629;52.256;10.414;2024-02-23T00:12:43;97709.66;;;18.18;52.03
70240;BME280;57629;52.256;10.414;2024-02-23T00:13:43;97708.91;;;18.18;51.88
70240;BME280;57629;52.256;10.414;2024-02-23T00:14:46;97700.94;;;18.18;52.00
70240;BME280;57629;52.256;10.414;2024-02-23T00:15:48;97708.91;;;18.18;51.85
70240;BME280;57629;52.256;10.414;2024-02-23T00:16:48;97709.22;;;18.16;51.79
70240;BME280;57629;52.256;10.414;2024-02-23T00:17:49;97710.00;;;18.17;52.08
70240;BME280;57629;52.256;10.414;2024-02-23T00:18:50;97711.88;;;18.16;52.05
70240;BME280;57629;52.256;10.414;2024-02-23T00:19:50;97729.38;;;18.17;51.88
70240;BME280;57629;52.256;10.414;2024-02-23T00:20:51;97733.91;;;18.17;52.04
70240;BME280;57629;52.256;10.414;2024-02-23T00:21:52;97735.47;;;18.18;51.97
70240;BME280;57629;52.256;10.414;2024-02-23T00:22:54;97740.75;;;18.18;52.32
70240;BME280;57629;52.256;10.414;2024-02-23T00:23:55;97743.41;;;18.18;51.87
70240;BME280;57629;52.256;10.414;2024-02-23T00:24:56;97735.78;;;18.16;52.03
70240;BME280;57629;52.256;10.414;2024-02-23T00:25:56;97743.75;;;18.16;51.72
70240;BME280;57629;52.256;10.414;2024-02-23T00:26:57;97741.88;;;18.17;51.94
70240;BME280;57629;52.256;10.414;2024-02-23T00:27:58;97752.50;;;18.17;51.50
70240;BME280;57629;52.256;10.414;2024-02-23T00:28:59;97753.56;;;18.16;52.10
70240;BME280;57629;52.256;10.414;2024-02-23T00:30:03;97747.47;;;18.15;51.97
70240;BME280;57629;52.256;10.414;2024-02-23T00:31:04;97751.72;;;18.16;51.78
70240;BME280;57629;52.256;10.414;2024-02-23T00:32:06;97769.50;;;18.16;51.87
70240;BME280;57629;52.256;10.414;2024-02-23T00:33:06;97766.38;;;18.14;51.89
70240;BME280;57629;52.256;10.414;2024-02-23T00:34:08;97771.97;;;18.12;52.00
70240;BME280;57629;52.256;10.414;2024-02-23T00:35:08;97774.63;;;18.12;52.01
70240;BME280;57629;52.256;10.414;2024-02-23T00:36:09;97769.31;;;18.12;51.98
70240;BME280;57629;52.256;10.414;2024-02-23T00:37:11;97769.81;;;18.14;51.81
70240;BME280;57629;52.256;10.414;2024-02-23T00:38:20;97778.84;;;18.13;51.72
70240;BME280;57629;52.256;10.414;2024-02-23T00:39:23;97775.13;;;18.14;51.79
70240;BME280;57629;52.256;10.414;2024-02-23T00:40:28;97779.66;;;18.14;52.02
70240;BME280;57629;52.256;10.414;2024-02-23T00:41:29;97780.44;;;18.14;51.90
70240;BME280;57629;52.256;10.414;2024-02-23T00:42:30;97786.53;;;18.15;51.82
70240;BME280;57629;52.256;10.414;2024-02-23T00:43:39;97776.69;;;18.15;51.73
70240;BME280;57629;52.256;10.414;2024-02-23T00:44:40;97777.00;;;18.14;51.74
70240;BME280;57629;52.256;10.414;2024-02-23T00:45:42;97776.69;;;18.15;51.72
70240;BME280;57629;52.256;10.414;2024-02-23T00:46:43;97784.66;;;18.15;51.78
70240;BME280;57629;52.256;10.414;2024-02-23T00:47:43;97792.94;;;18.14;51.87
70240;BME280;57629;52.256;10.414;2024-02-23T00:48:44;97789.47;;;18.13;51.80
70240;BME280;57629;52.256;10.414;2024-02-23T00:49:45;97806.50;;;18.12;52.21
70240;BME280;57629;52.256;10.414;2024-02-23T00:50:46;97795.88;;;18.12;51.73
70240;BME280;57629;52.256;10.414;2024-02-23T00:51:46;97801.19;;;18.12;51.62
70240;BME280;57629;52.256;10.414;2024-02-23T00:52:47;97808.06;;;18.13;51.66
70240;BME280;57629;52.256;10.414;2024-02-23T00:53:48;97813.38;;;18.13;51.71
70240;BME280;57629;52.256;10.414;2024-02-23T00:54:49;97827.47;;;18.14;51.55
70240;BME280;57629;52.256;10.414;2024-02-23T00:55:49;97826.66;;;18.13;51.72
70240;BME280;57629;52.256;10.414;2024-02-23T00:56:50;97818.69;;;18.13;51.75
70240;BME280;57629;52.256;10.414;2024-02-23T00:57:51;97824.00;;;18.13;51.59
70240;BME280;57629;52.256;10.414;2024-02-23T00:58:51;97843.69;;;18.12;51.49
70240;BME280;57629;52.256;10.414;2024-02-23T00:59:52;97834.63;;;18.13;51.41
70240;BME280;57629;52.256;10.414;2024-02-23T01:00:55;97850.56;;;18.13;51.72
70240;BME280;57629;52.256;10.414;2024-02-23T01:01:55;97842.13;;;18.11;51.78
70240;BME280;57629;52.256;10.414;2024-02-23T01:02:56;97848.50;;;18.10;51.35
70240;BME280;57629;52.256;10.414;2024-02-23T01:03:57;97856.75;;;18.08;51.64
70240;BME280;57629;52.256;10.414;2024-02-23T01:04:57;97842.69;;;18.08;51.39
70240;BME280;57629;52.256;10.414;2024-02-23T01:05:58;97848.00;;;18.08;51.57
70240;BME280;57629;52.256;10.414;2024-02-23T01:06:59;97849.88;;;18.07;51.34
70240;BME280;57629;52.256;10.414;2024-02-23T01:07:59;97857.84;;;18.07;51.48
70240;BME280;57629;52.256;10.414;2024-02-23T01:09:01;97846.44;;;18.07;51.34
70240;BME280;57629;52.256;10.414;2024-02-23T01:10:02;97855.19;;;18.07;51.37
70240;BME280;57629;52.256;10.414;2024-02-23T01:11:03;97862.38;;;18.07;51.45
70240;BME280;57629;52.256;10.414;2024-02-23T01:12:04;97886.28;;;18.07;51.32
70240;BME280;57629;52.256;10.414;2024-02-23T01:13:06;97858.94;;;18.06;50.93
70240;BME280;57629;52.256;10.414;2024-02-23T01:14:07;97856.28;;;18.06;50.93
70240;BME280;57629;52.256;10.414;2024-02-23T01:15:09;97860.50;;;18.07;50.96
70240;BME280;57629;52.256;10.414;2024-02-23T01:16:13;97854.41;;;18.07;50.93
70240;BME280;57629;52.256;10.414;2024-02-23T01:17:17;97869.25;;;18.08;51.38
70240;BME280;57629;52.256;10.414;2024-02-23T01:18:21;97871.91;;;18.08;51.18
70240;BME280;57629;52.256;10.414;2024-02-23T01:19:28;97878.00;;;18.08;51.18
70240;BME280;57629;52.256;10.414;2024-02-23T01:20:34;97889.44;;;18.09;51.07
70240;BME280;57629;52.256;10.414;2024-02-23T01:21:34;97890.22;;;18.10;50.89
70240;BME280;57629;52.256;10.414;2024-02-23T01:22:36;97885.97;;;18.08;51.22
70240;BME280;57629;52.256;10.414;2024-02-23T01:23:36;97880.38;;;18.10;51.15
70240;BME280;57629;52.256;10.414;2024-02-23T01:24:37;97876.94;;;18.10;51.08
70240;BME280;57629;52.256;10.414;2024-02-23T01:25:38;97885.69;;;18.10;51.03
70240;BME280;57629;52.256;10.414;2024-02-23T01:26:38;97892.09;;;18.09;51.36
70240;BME280;57629;52.256;10.414;2024-02-23T01:27:39;97898.19;;;18.10;51.07
70240;BME280;57629;52.256;10.414;2024-02-23T01:28:40;97903.50;;;18.10;51.01
70240;BME280;57629;52.256;10.414;2024-02-23T01:29:41;97892.09;;;18.09;51.26
70240;BME280;57629;52.256;10.414;2024-02-23T01:30:42;97907.72;;;18.11;51.06
70240;BME280;57629;52.256;10.414;2024-02-23T01:31:44;97903.22;;;18.11;51.26
70240;BME280;57629;52.256;10.414;2024-02-23T01:32:44;97889.13;;;18.11;51.12
70240;BME280;57629;52.256;10.414;2024-02-23T01:33:45;97902.41;;;18.11;50.88
70240;BME280;57629;52.256;10.414;2024-02-23T01:34:46;97907.72;;;18.11;51.01
70240;BME280;57629;52.256;10.414;2024-02-23T01:35:47;97912.84;;;18.07;51.17
70240;BME280;57629;52.256;10.414;2024-02-23T01:36:48;97915.50;;;18.07;51.08
70240;BME280;57629;52.256;10.414;2024-02-23T01:37:49;97915.50;;;18.07;51.42
70240;BME280;57629;52.256;10.414;2024-02-23T01:38:50;97916.28;;;18.07;51.14
70240;BME280;57629;52.256;10.414;2024-02-23T01:39:51;97921.59;;;18.07;50.88
70240;BME280;57629;52.256;10.414;2024-02-23T01:40:51;97933.78;;;18.08;51.32
70240;BME280;57629;52.256;10.414;2024-02-23T01:41:52;97926.28;;;18.11;51.06
70240;BME280;57629;52.256;10.414;2024-02-23T01:43:01;97939.09;;;18.08;51.00
70240;BME280;57629;52.256;10.414;2024-02-23T01:44:02;97938.31;;;18.08;51.00
70240;BME280;57629;52.256;10.414;2024-02-23T01:45:04;97940.16;;;18.07;50.99
70240;BME280;57629;52.256;10.414;2024-02-23T01:46:07;97961.41;;;18.07;50.86
70240;BME280;57629;52.256;10.414;2024-02-23T01:47:10;97952.66;;;18.07;51.34
70240;BME280;57629;52.256;10.414;2024-02-23T01:48:20;97956.09;;;18.07;50.76
70240;BME280;57629;52.256;10.414;2024-02-23T01:49:27;97960.94;;;18.05;50.96
70240;BME280;57629;52.256;10.414;2024-02-23T01:50:29;97946.09;;;18.04;51.11
70240;BME280;57629;52.256;10.414;2024-02-23T01:51:30;97968.88;;;18.05;50.68
70240;BME280;57629;52.256;10.414;2024-02-23T01:52:35;97972.63;;;18.04;51.14
70240;BME280;57629;52.256;10.414;2024-02-23T01:53:35;97975.28;;;18.04;51.02
70240;BME280;57629;52.256;10.414;2024-02-23T01:54:37;97989.63;;;18.03;50.96
70240;BME280;57629;52.256;10.414;2024-02-23T01:55:40;97990.72;;;18.02;50.58
70240;BME280;57629;52.256;10.414;2024-02-23T01:56:41;97988.06;;;18.02;50.63
70240;BME280;57629;52.256;10.414;2024-02-23T01:57:42;97990.72;;;18.02;50.80
70240;BME280;57629;52.256;10.414;2024-02-23T01:58:43;97999.47;;;18.03;50.43
70240;BME280;57629;52.256;10.414;2024-02-23T01:59:44;98010.09;;;18.03;50.87
70240;BME280;57629;52.256;10.414;2024-02-23T02:00:45;97997.59;;;18.03;50.79
70240;BME280;57629;52.256;10.414;2024-02-23T02:01:49;98010.09;;;18.03;50.41
70240;BME280;57629;52.256;10.414;2024-02-23T02:02:52;98014.63;;;18.02;50.73
70240;BME280;57629;52.256;10.414;2024-02-23T02:03:52;98017.28;;;18.02;50.40
70240;BME280;57629;52.256;10.414;2024-02-23T02:04:53;98020.72;;;18.03;50.29
70240;BME280;57629;52.256;10.414;2024-02-23T02:05:55;98019.16;;;18.02;50.45
70240;BME280;57629;52.256;10.414;2024-02-23T02:06:58;98019.16;;;18.02;50.68
70240;BME280;57629;52.256;10.414;2024-02-23T02:08:00;98035.09;;;18.02;50.51
70240;BME280;57629;52.256;10.414;2024-02-23T02:09:01;98034.00;;;18.03;50.55
70240;BME280;57629;52.256;10.414;2024-02-23T02:10:02;98063.22;;;18.03;50.40
70240;BME280;57629;52.256;10.414;2024-02-23T02:11:04;98064.00;;;18.03;50.77
70240;BME280;57629;52.256;10.414;2024-02-23T02:12:06;98064.31;;;18.02;50.60
70240;BME280;57629;52.256;10.414;2024-02-23T02:13:08;98071.19;;;18.03;50.59
70240;BME280;57629;52.256;10.414;2024-02-23T02:14:08;98073.06;;;18.02;50.51
70240;BME280;57629;52.256;10.414;2024-02-23T02:15:10;98080.50;;;18.00;50.69
70240;BME280;57629;52.256;10.414;2024-02-23T02:16:14;98080.22;;;18.02;50.46
70240;BME280;57629;52.256;10.414;2024-02-23T02:17:21;98095.38;;;18.01;50.53
70240;BME280;57629;52.256;10.414;2024-02-23T02:18:24;98099.09;;;18.00;50.45
70240;BME280;57629;52.256;10.414;2024-02-23T02:19:27;98088.47;;;18.00;49.97
70240;BME280;57629;52.256;10.414;2024-02-23T02:20:32;98104.41;;;18.00;50.31
70240;BME280;57629;52.256;10.414;2024-02-23T02:21:33;98105.19;;;18.01;50.17
70240;BME280;57629;52.256;10.414;2024-02-23T02:22:35;98115.81;;;18.01;50.46
70240;BME280;57629;52.256;10.414;2024-02-23T02:23:36;98115.81;;;18.01;50.30
70240;BME280;57629;52.256;10.414;2024-02-23T02:24:37;98106.28;;;18.00;50.25
70240;BME280;57629;52.256;10.414;2024-02-23T02:25:38;98118.47;;;18.01;50.26
70240;BME280;57629;52.256;10.414;2024-02-23T02:26:39;98118.47;;;18.01;50.28
70240;BME280;57629;52.256;10.414;2024-02-23T02:27:39;98123.00;;;18.00;50.35
70240;BME280;57629;52.256;10.414;2024-02-23T02:28:40;98126.44;;;18.01;50.10
70240;BME280;57629;52.256;10.414;2024-02-23T02:29:41;98129.41;;;17.99;50.47
70240;BME280;57629;52.256;10.414;2024-02-23T02:30:42;98125.97;;;17.99;50.17
70240;BME280;57629;52.256;10.414;2024-02-23T02:31:42;98137.38;;;17.99;50.13
70240;BME280;57629;52.256;10.414;2024-02-23T02:32:43;98140.81;;;18.00;50.42
70240;BME280;57629;52.256;10.414;2024-02-23T02:33:45;98144.25;;;18.00;50.44
70240;BME280;57629;52.256;10.414;2024-02-23T02:34:46;98144.25;;;18.00;50.05
70240;BME280;57629;52.256;10.414;2024-02-23T02:35:47;98146.13;;;18.00;50.20
70240;BME280;57629;52.256;10.414;2024-02-23T02:36:49;98146.13;;;18.00;50.42
70240;BME280;57629;52.256;10.414;2024-02-23T02:37:50;98146.13;;;18.00;50.17
70240;BME280;57629;52.256;10.414;2024-02-23T02:38:51;98158.63;;;17.99;50.42
70240;BME280;57629;52.256;10.414;2024-02-23T02:39:51;98155.19;;;17.99;50.07
70240;BME280;57629;52.256;10.414;2024-02-23T02:40:52;98145.63;;;17.98;50.09
70240;BME280;57629;52.256;10.414;2024-02-23T02:41:53;98171.91;;;17.99;50.04
70240;BME280;57629;52.256;10.414;2024-02-23T02:42:53;98174.56;;;17.99;50.29
70240;BME280;57629;52.256;10.414;2024-02-23T02:43:55;98165.00;;;17.98;50.20
70240;BME280;57629;52.256;10.414;2024-02-23T02:44:56;98159.69;;;17.98;49.96
70240;BME280;57629;52.256;10.414;2024-02-23T02:45:56;98171.91;;;17.99;50.20
70240;BME280;57629;52.256;10.414;2024-02-23T02:46:57;98174.81;;;17.98;50.07
70240;BME280;57629;52.256;10.414;2024-02-23T02:48:00;98190.47;;;17.99;50.20
70240;BME280;57629;52.256;10.414;2024-02-23T02:49:02;98187.03;;;17.99;50.34
70240;BME280;57629;52.256;10.414;2024-02-23T02:50:04;98186.22;;;17.98;50.38
70240;BME280;57629;52.256;10.414;2024-02-23T02:51:05;98202.16;;;17.98;49.82
70240;BME280;57629;52.256;10.414;2024-02-23T02:52:08;98193.13;;;17.99;50.12
70240;BME280;57629;52.256;10.414;2024-02-23T02:53:09;98201.88;;;18.00;50.23
70240;BME280;57629;52.256;10.414;2024-02-23T02:54:12;98204.81;;;17.98;50.05
70240;BME280;57629;52.256;10.414;2024-02-23T02:55:15;98212.00;;;17.98;50.16
70240;BME280;57629;52.256;10.414;2024-02-23T02:56:21;98216.25;;;17.99;50.04
70240;BME280;57629;52.256;10.414;2024-02-23T02:57:22;98231.38;;;17.98;50.06
70240;BME280;57629;52.256;10.414;2024-02-23T02:58:25;98226.06;;;17.98;50.05
70240;BME280;57629;52.256;10.414;2024-02-23T02:59:34;98233.25;;;17.98;50.10
70240;BME280;57629;52.256;10.414;2024-02-23T03:00:34;98226.38;;;17.97;50.03
70240;BME280;57629;52.256;10.414;2024-02-23T03:01:36;98232.47;;;17.97;50.01
70240;BME280;57629;52.256;10.414;2024-02-23T03:02:37;98237.00;;;17.97;50.09
70240;BME280;57629;52.256;10.414;2024-02-23T03:03:38;98237.00;;;17.97;50.02
70240;BME280;57629;52.256;10.414;2024-02-23T03:04:46;98242.31;;;17.97;49.82
70240;BME280;57629;52.256;10.414;2024-02-23T03:05:47;98245.75;;;17.97;49.84
70240;BME280;57629;52.256;10.414;2024-02-23T03:06:48;98242.31;;;17.97;49.96
70240;BME280;57629;52.256;10.414;2024-02-23T03:07:49;98249.19;;;17.98;50.22
70240;BME280;57629;52.256;10.414;2024-02-23T03:08:50;98255.28;;;17.98;49.91
70240;BME280;57629;52.256;10.414;2024-02-23T03:09:50;98255.28;;;17.98;49.92
70240;BME280;57629;52.256;10.414;2024-02-23T03:10:51;98256.09;;;17.99;49.96
70240;BME280;57629;52.256;10.414;2024-02-23T03:11:52;98258.75;;;17.99;50.08
70240;BME280;57629;52.256;10.414;2024-02-23T03:12:52;98261.09;;;18.00;50.20
70240;BME280;57629;52.256;10.414;2024-02-23T03:13:53;98266.41;;;18.00;50.03
70240;BME280;57629;52.256;10.414;2024-02-23T03:14:54;98259.22;;;18.01;49.75
70240;BME280;57629;52.256;10.414;2024-02-23T03:15:55;98258.75;;;17.99;49.92
70240;BME280;57629;52.256;10.414;2024-02-23T03:16:56;98269.38;;;17.99;49.96
70240;BME280;57629;52.256;10.414;2024-02-23T03:17:56;98275.72;;;17.98;50.16
70240;BME280;57629;52.256;10.414;2024-02-23T03:18:57;98281.34;;;17.96;49.76
70240;BME280;57629;52.256;10.414;2024-02-23T03:19:59;98273.38;;;17.96;49.91
70240;BME280;57629;52.256;10.414;2024-02-23T03:21:00;98272.28;;;17.97;49.58
70240;BME280;57629;52.256;10.414;2024-02-23T03:22:01;98280.53;;;17.96;49.98
70240;BME280;57629;52.256;10.414;2024-02-23T03:23:03;98285.56;;;17.97;50.30
70240;BME280;57629;52.256;10.414;2024-02-23T03:24:05;98282.13;;;17.97;49.69
70240;BME280;57629;52.256;10.414;2024-02-23T03:25:09;98281.34;;;17.96;49.62
70240;BME280;57629;52.256;10.414;2024-02-23T03:26:10;98288.22;;;17.97;49.80
70240;BME280;57629;52.256;10.414;2024-02-23T03:27:14;98283.69;;;17.98;49.45
70240;BME280;57629;52.256;10.414;2024-02-23T03:28:15;98290.88;;;17.97;49.63
70240;BME280;57629;52.256;10.414;2024-02-23T03:29:20;98278.69;;;17.96;49.79
70240;BME280;57629;52.256;10.414;2024-02-23T03:30:22;98291.66;;;17.98;49.74
70240;BME280;57629;52.256;10.414;2024-02-23T03:31:28;98291.97;;;17.96;50.03
70240;BME280;57629;52.256;10.414;2024-02-23T03:32:31;98298.06;;;17.97;49.87
70240;BME280;57629;52.256;10.414;2024-02-23T03:33:32;98290.88;;;17.97;49.83
70240;BME280;57629;52.256;10.414;2024-02-23T03:34:33;98298.06;;;17.97;49.71
70240;BME280;57629;52.256;10.414;2024-02-23T03:35:35;98298.84;;;17.97;49.28
70240;BME280;57629;52.256;10.414;2024-02-23T03:36:39;98301.78;;;17.96;49.88
70240;BME280;57629;52.256;10.414;2024-02-23T03:37:40;98301.78;;;17.96;50.18
70240;BME280;57629;52.256;10.414;2024-02-23T03:38:41;98300.72;;;17.97;49.55
70240;BME280;57629;52.256;10.414;2024-02-23T03:39:41;98305.25;;;17.96;49.87
70240;BME280;57629;52.256;10.414;2024-02-23T03:40:42;98311.03;;;17.98;49.77
70240;BME280;57629;52.256;10.414;2024-02-23T03:41:43;98313.69;;;17.98;49.70
70240;BME280;57629;52.256;10.414;2024-02-23T03:42:44;98315.56;;;17.98;49.85
70240;BME280;57629;52.256;10.414;2024-02-23T03:43:47;98321.66;;;17.98;49.89
70240;BME280;57629;52.256;10.414;2024-02-23T03:44:48;98319.00;;;17.98;49.55
70240;BME280;57629;52.256;10.414;2024-02-23T03:45:49;98322.47;;;17.99;50.00
70240;BME280;57629;52.256;10.414;2024-02-23T03:46:49;98322.47;;;17.99;49.70
70240;BME280;57629;52.256;10.414;2024-02-23T03:47:50;98322.47;;;17.99;49.55
70240;BME280;57629;52.256;10.414;2024-02-23T03:48:51;98327.78;;;17.99;49.70
70240;BME280;57629;52.256;10.414;2024-02-23T03:49:51;98321.38;;;18.00;49.68
70240;BME280;57629;52.256;10.414;2024-02-23T03:50:54;98325.91;;;17.99;49.78
70240;BME280;57629;52.256;10.414;2024-02-23T03:51:55;98320.88;;;17.98;49.33
70240;BME280;57629;52.256;10.414;2024-02-23T03:52:56;98335.75;;;17.99;49.52
70240;BME280;57629;52.256;10.414;2024-02-23T03:53:57;98324.31;;;17.98;49.78
70240;BME280;57629;52.256;10.414;2024-02-23T03:54:57;98333.09;;;17.99;49.84
70240;BME280;57629;52.256;10.414;2024-02-23T03:55:58;98342.44;;;17.96;49.80
70240;BME280;57629;52.256;10.414;2024-02-23T03:56:59;98344.00;;;17.97;49.88
70240;BME280;57629;52.256;10.414;2024-02-23T03:58:00;98344.78;;;17.98;49.86
70240;BME280;57629;52.256;10.414;2024-02-23T03:59:01;98351.19;;;17.97;49.60
70240;BME280;57629;52.256;10.414;2024-02-23T04:00:02;98340.81;;;17.95;49.78
70240;BME280;57629;52.256;10.414;2024-02-23T04:01:04;98347.75;;;17.96;49.95
70240;BME280;57629;52.256;10.414;2024-02-23T04:02:05;98348.53;;;17.97;49.52
70240;BME280;57629;52.256;10.414;2024-02-23T04:03:06;98358.06;;;17.98;49.74
70240;BME280;57629;52.256;10.414;2024-02-23T04:04:08;98352.22;;;17.96;49.54
70240;BME280;57629;52.256;10.414;2024-02-23T04:05:13;98349.56;;;17.96;49.49
70240;BME280;57629;52.256;10.414;2024-02-23T04:06:21;98351.44;;;17.95;49.64
70240;BME280;57629;52.256;10.414;2024-02-23T04:07:30;98353.03;;;17.96;49.63
70240;BME280;57629;52.256;10.414;2024-02-23T04:08:33;98353.84;;;17.97;49.51
70240;BME280;57629;52.256;10.414;2024-02-23T04:09:33;98364.72;;;17.95;49.49
70240;BME280;57629;52.256;10.414;2024-02-23T04:10:34;98357.53;;;17.96;49.49
70240;BME280;57629;52.256;10.414;2024-02-23T04:11:35;98361.00;;;17.96;49.70
70240;BME280;57629;52.256;10.414;2024-02-23T04:12:36;98361.00;;;17.96;49.51
70240;BME280;57629;52.256;10.414;2024-02-23T04:13:36;98362.59;;;17.97;49.56
70240;BME280;57629;52.256;10.414;2024-02-23T04:14:37;98369.47;;;17.98;49.43
70240;BME280;57629;52.256;10.414;2024-02-23T04:15:42;98367.91;;;17.97;49.79
70240;BME280;57629;52.256;10.414;2024-02-23T04:16:43;98363.38;;;17.98;49.63
70240;BME280;57629;52.256;10.414;2024-02-23T04:17:45;98372.94;;;17.99;49.62
70240;BME280;57629;52.256;10.414;2024-02-23T04:18:46;98372.13;;;17.98;49.47
70240;BME280;57629;52.256;10.414;2024-02-23T04:19:47;98379.03;;;17.99;50.08
70240;BME280;57629;52.256;10.414;2024-02-23T04:20:47;98370.28;;;17.99;49.62
70240;BME280;57629;52.256;10.414;2024-02-23T04:21:49;98375.06;;;17.97;49.17
70240;BME280;57629;52.256;10.414;2024-02-23T04:22:55;98380.09;;;17.98;49.52
70240;BME280;57629;52.256;10.414;2024-02-23T04:23:55;98390.72;;;17.98;49.26
70240;BME280;57629;52.256;10.414;2024-02-23T04:24:56;98386.47;;;17.97;49.48
70240;BME280;57629;52.256;10.414;2024-02-23T04:25:58;98393.38;;;17.98;49.22
70240;BME280;57629;52.256;10.414;2024-02-23T04:26:59;98386.47;;;17.97;49.48
70240;BME280;57629;52.256;10.414;2024-02-23T04:27:59;98391.00;;;17.97;49.15
70240;BME280;57629;52.256;10.414;2024-02-23T04:29:00;98395.53;;;17.96;49.09
70240;BME280;57629;52.256;10.414;2024-02-23T04:30:02;98397.38;;;17.96;49.62
70240;BME280;57629;52.256;10.414;2024-02-23T04:31:03;98401.91;;;17.95;49.52
70240;BME280;57629;52.256;10.414;2024-02-23T04:32:05;98403.50;;;17.96;49.25
70240;BME280;57629;52.256;10.414;2024-02-23T04:33:06;98400.03;;;17.96;49.48
70240;BME280;57629;52.256;10.414;2024-02-23T04:34:09;98409.59;;;17.97;49.64
70240;BME280;57629;52.256;10.414;2024-02-23T04:35:10;98418.34;;;17.97;49.60
70240;BME280;57629;52.256;10.414;2024-02-23T04:36:19;98408.25;;;17.99;49.50
70240;BME280;57629;52.256;10.414;2024-02-23T04:37:22;98414.34;;;18.00;49.35
70240;BME280;57629;52.256;10.414;2024-02-23T04:38:28;98411.94;;;17.98;49.27
70240;BME280;57629;52.256;10.414;2024-02-23T04:39:30;98419.91;;;17.98;49.26
70240;BME280;57629;52.256;10.414;2024-02-23T04:40:36;98413.03;;;17.97;49.60
70240;BME280;57629;52.256;10.414;2024-02-23T04:41:36;98414.91;;;17.97;49.30
70240;BME280;57629;52.256;10.414;2024-02-23T04:42:37;98426.31;;;17.97;49.01
70240;BME280;57629;52.256;10.414;2024-02-23T04:43:40;98427.09;;;17.98;49.53
70240;BME280;57629;52.256;10.414;2024-02-23T04:44:41;98427.09;;;17.98;49.45
70240;BME280;57629;52.256;10.414;2024-02-23T04:45:42;98431.34;;;17.99;49.11
70240;BME280;57629;52.256;10.414;2024-02-23T04:46:43;98436.66;;;17.99;49.57
70240;BME280;57629;52.256;10.414;2024-02-23T04:47:44;98434.78;;;17.99;49.42
70240;BME280;57629;52.256;10.414;2024-02-23T04:48:44;98430.53;;;17.98;49.50
70240;BME280;57629;52.256;10.414;2024-02-23T04:49:45;98432.94;;;18.00;49.22
70240;BME280;57629;52.256;10.414;2024-02-23T04:50:49;98435.84;;;17.98;49.35
70240;BME280;57629;52.256;10.414;2024-02-23T04:51:50;98444.63;;;17.99;49.37
70240;BME280;57629;52.256;10.414;2024-02-23T04:52:52;98432.16;;;17.99;49.46
70240;BME280;57629;52.256;10.414;2024-02-23T04:53:52;98441.16;;;17.98;49.34
70240;BME280;57629;52.256;10.414;2024-02-23T04:54:53;98444.63;;;17.99;49.47
70240;BME280;57629;52.256;10.414;2024-02-23T04:55:54;98443.34;;;17.96;49.14
70240;BME280;57629;52.256;10.414;2024-02-23T04:56:55;98438.03;;;17.96;49.16
70240;BME280;57629;52.256;10.414;2024-02-23T04:57:56;98437.22;;;17.96;49.21
70240;BME280;57629;52.256;10.414;2024-02-23T04:58:57;98441.47;;;17.97;49.40
70240;BME280;57629;52.256;10.414;2024-02-23T04:59:58;98442.75;;;17.99;49.45
70240;BME280;57629;52.256;10.414;2024-02-23T05:00:58;98443.81;;;17.98;49.45
70240;BME280;57629;52.256;10.414;2024-02-23T05:02:00;98448.06;;;17.99;49.52
70240;BME280;57629;52.256;10.414;2024-02-23T05:03:01;98441.97;;;17.99;49.49
70240;BME280;57629;52.256;10.414;2024-02-23T05:04:01;98443.53;;;18.00;49.17
70240;BME280;57629;52.256;10.414;2024-02-23T05:05:03;98441.97;;;17.99;49.39
70240;BME280;57629;52.256;10.414;2024-02-23T05:06:05;98439.31;;;17.99;49.17
70240;BME280;57629;52.256;10.414;2024-02-23T05:07:09;98436.66;;;17.99;49.07
70240;BME280;57629;52.256;10.414;2024-02-23T05:08:18;98444.63;;;17.99;49.37
70240;BME280;57629;52.256;10.414;2024-02-23T05:09:24;98439.59;;;17.97;49.39
70240;BME280;57629;52.256;10.414;2024-02-23T05:10:30;98449.94;;;17.99;49.26
70240;BME280;57629;52.256;10.414;2024-02-23T05:11:30;98447.28;;;17.99;49.30
70240;BME280;57629;52.256;10.414;2024-02-23T05:12:31;98443.81;;;17.98;49.44
70240;BME280;57629;52.256;10.414;2024-02-23T05:13:34;98457.91;;;17.99;49.28
70240;BME280;57629;52.256;10.414;2024-02-23T05:14:34;98458.69;;;17.99;49.50
70240;BME280;57629;52.256;10.414;2024-02-23T05:15:45;98453.38;;;17.99;49.46
70240;BME280;57629;52.256;10.414;2024-02-23T05:16:47;98451.78;;;17.98;49.32
70240;BME280;57629;52.256;10.414;2024-02-23T05:17:48;98457.91;;;17.99;49.36
70240;BME280;57629;52.256;10.414;2024-02-23T05:18:49;98453.38;;;17.99;49.10
70240;BME280;57629;52.256;10.414;2024-02-23T05:19:50;98455.25;;;17.99;49.10
70240;BME280;57629;52.256;10.414;2024-02-23T05:20:50;98463.22;;;17.99;49.58
70240;BME280;57629;52.256;10.414;2024-02-23T05:21:51;98455.25;;;17.99;49.10
70240;BME280;57629;52.256;10.414;2024-02-23T05:22:56;98464.78;;;18.00;49.19